sensor_id;sensor_type;location;lat;lon;timestamp;pressure;altitude;pressure_sealevel;temperature
71649;BMP180;59492;45.638;11.714;2022-12-18T00:01:16;102175.20;;;17.80
71649;BMP180;59492;45.638;11.714;2022-12-18T00:03:42;102176.80;;;17.80
71649;BMP180;59492;45.638;11.714;2022-12-18T00:06:08;102177.60;;;17.80
71649;BMP180;59492;45.638;11.714;2022-12-18T00:08:34;102179.20;;;17.78
71649;BMP180;59492;45.638;11.714;2022-12-18T00:11:10;102188.00;;;17.78
71649;BMP180;59492;45.638;11.714;2022-12-18T00:13:36;102188.80;;;17.70
71649;BMP180;59492;45.638;11.714;2022-12-18T00:16:04;102193.40;;;17.70
71649;BMP180;59492;45.638;11.714;2022-12-18T00:18:30;102195.60;;;17.74
71649;BMP180;59492;45.638;11.714;2022-12-18T00:21:00;102193.60;;;17.80
71649;BMP180;59492;45.638;11.714;2022-12-18T00:23:27;102198.40;;;17.80
71649;BMP180;59492;45.638;11.714;2022-12-18T00:25:53;102191.80;;;17.74
71649;BMP180;59492;45.638;11.714;2022-12-18T00:28:18;102193.80;;;17.70
71649;BMP180;59492;45.638;11.714;2022-12-18T00:30:44;102191.40;;;17.70
71649;BMP180;59492;45.638;11.714;2022-12-18T00:33:09;102191.80;;;17.70
71649;BMP180;59492;45.638;11.714;2022-12-18T00:35:35;102196.80;;;17.70
71649;BMP180;59492;45.638;11.714;2022-12-18T00:38:01;102198.60;;;17.72
71649;BMP180;59492;45.638;11.714;2022-12-18T00:40:26;102200.60;;;17.78
71649;BMP180;59492;45.638;11.714;2022-12-18T00:42:52;102203.00;;;17.74
71649;BMP180;59492;45.638;11.714;2022-12-18T00:45:21;102206.00;;;17.70
71649;BMP180;59492;45.638;11.714;2022-12-18T00:47:50;102213.80;;;17.70
71649;BMP180;59492;45.638;11.714;2022-12-18T00:50:16;102211.80;;;17.70
71649;BMP180;59492;45.638;11.714;2022-12-18T00:52:42;102223.40;;;17.70
71649;BMP180;59492;45.638;11.714;2022-12-18T00:55:11;102221.20;;;17.70
71649;BMP180;59492;45.638;11.714;2022-12-18T00:57:36;102224.00;;;17.72
71649;BMP180;59492;45.638;11.714;2022-12-18T01:00:04;102219.60;;;17.72
71649;BMP180;59492;45.638;11.714;2022-12-18T01:02:30;102220.40;;;17.70
71649;BMP180;59492;45.638;11.714;2022-12-18T01:04:56;102226.40;;;17.70
71649;BMP180;59492;45.638;11.714;2022-12-18T01:07:21;102232.00;;;17.70
71649;BMP180;59492;45.638;11.714;2022-12-18T01:09:47;102237.80;;;17.66
71649;BMP180;59492;45.638;11.714;2022-12-18T01:12:12;102242.00;;;17.62
71649;BMP180;59492;45.638;11.714;2022-12-18T01:14:38;102241.00;;;17.70
71649;BMP180;59492;45.638;11.714;2022-12-18T01:17:04;102244.80;;;17.70
71649;BMP180;59492;45.638;11.714;2022-12-18T01:19:29;102255.80;;;17.70
71649;BMP180;59492;45.638;11.714;2022-12-18T01:21:55;102259.20;;;17.70
71649;BMP180;59492;45.638;11.714;2022-12-18T01:24:20;102260.00;;;17.66
71649;BMP180;59492;45.638;11.714;2022-12-18T01:26:46;102261.80;;;17.60
71649;BMP180;59492;45.638;11.714;2022-12-18T01:29:12;102265.40;;;17.60
71649;BMP180;59492;45.638;11.714;2022-12-18T01:31:37;102266.00;;;17.60
71649;BMP180;59492;45.638;11.714;2022-12-18T01:34:04;102266.80;;;17.66
71649;BMP180;59492;45.638;11.714;2022-12-18T01:36:32;102272.60;;;17.70
71649;BMP180;59492;45.638;11.714;2022-12-18T01:39:05;102273.80;;;17.66
71649;BMP180;59492;45.638;11.714;2022-12-18T01:41:32;102276.40;;;17.60
71649;BMP180;59492;45.638;11.714;2022-12-18T01:49:56;102282.40;;;17.50
71649;BMP180;59492;45.638;11.714;2022-12-18T01:52:24;102280.40;;;17.50
71649;BMP180;59492;45.638;11.714;2022-12-18T01:54:51;102279.80;;;17.58
71649;BMP180;59492;45.638;11.714;2022-12-18T01:57:17;102289.80;;;17.60
71649;BMP180;59492;45.638;11.714;2022-12-18T01:59:45;102290.60;;;17.60
71649;BMP180;59492;45.638;11.714;2022-12-18T02:02:14;102287.20;;;17.54
71649;BMP180;59492;45.638;11.714;2022-12-18T02:04:40;102293.80;;;17.50
71649;BMP180;59492;45.638;11.714;2022-12-18T02:09:48;102302.20;;;17.50
71649;BMP180;59492;45.638;11.714;2022-12-18T02:12:24;102302.40;;;17.50
71649;BMP180;59492;45.638;11.714;2022-12-18T02:15:02;102306.80;;;17.60
71649;BMP180;59492;45.638;11.714;2022-12-18T02:17:38;102313.40;;;17.52
71649;BMP180;59492;45.638;11.714;2022-12-18T02:25:22;102315.40;;;17.50
71649;BMP180;59492;45.638;11.714;2022-12-18T02:27:50;102316.00;;;17.48
71649;BMP180;59492;45.638;11.714;2022-12-18T02:30:18;102312.40;;;17.46
71649;BMP180;59492;45.638;11.714;2022-12-18T02:32:49;102315.60;;;17.50
71649;BMP180;59492;45.638;11.714;2022-12-18T02:35:28;102319.20;;;17.50
71649;BMP180;59492;45.638;11.714;2022-12-18T02:37:55;102322.40;;;17.50
71649;BMP180;59492;45.638;11.714;2022-12-18T02:40:22;102325.60;;;17.50
71649;BMP180;59492;45.638;11.714;2022-12-18T02:42:48;102331.00;;;17.50
71649;BMP180;59492;45.638;11.714;2022-12-18T02:45:14;102336.00;;;17.46
71649;BMP180;59492;45.638;11.714;2022-12-18T02:47:43;102340.00;;;17.46
71649;BMP180;59492;45.638;11.714;2022-12-18T02:50:30;102342.40;;;17.40
71649;BMP180;59492;45.638;11.714;2022-12-18T02:53:27;102347.80;;;17.46
71649;BMP180;59492;45.638;11.714;2022-12-18T03:01:48;102356.60;;;17.40
71649;BMP180;59492;45.638;11.714;2022-12-18T03:04:22;102352.00;;;17.38
71649;BMP180;59492;45.638;11.714;2022-12-18T03:06:55;102347.40;;;17.40
71649;BMP180;59492;45.638;11.714;2022-12-18T03:09:48;102345.80;;;17.36
71649;BMP180;59492;45.638;11.714;2022-12-18T03:12:19;102347.40;;;17.30
71649;BMP180;59492;45.638;11.714;2022-12-18T03:15:17;102352.60;;;17.40
71649;BMP180;59492;45.638;11.714;2022-12-18T03:17:55;102355.80;;;17.40
71649;BMP180;59492;45.638;11.714;2022-12-18T03:20:24;102355.40;;;17.40
71649;BMP180;59492;45.638;11.714;2022-12-18T03:22:56;102360.00;;;17.38
71649;BMP180;59492;45.638;11.714;2022-12-18T03:25:25;102357.80;;;17.34
71649;BMP180;59492;45.638;11.714;2022-12-18T03:27:54;102358.00;;;17.32
71649;BMP180;59492;45.638;11.714;2022-12-18T03:30:22;102357.60;;;17.30
71649;BMP180;59492;45.638;11.714;2022-12-18T03:32:56;102350.80;;;17.30
71649;BMP180;59492;45.638;11.714;2022-12-18T03:35:29;102350.40;;;17.36
71649;BMP180;59492;45.638;11.714;2022-12-18T03:37:56;102356.60;;;17.40
71649;BMP180;59492;45.638;11.714;2022-12-18T03:40:26;102356.60;;;17.40
71649;BMP180;59492;45.638;11.714;2022-12-18T03:43:08;102352.20;;;17.34
71649;BMP180;59492;45.638;11.714;2022-12-18T03:45:42;102358.40;;;17.30
71649;BMP180;59492;45.638;11.714;2022-12-18T03:48:47;102360.00;;;17.30
71649;BMP180;59492;45.638;11.714;2022-12-18T03:51:18;102357.40;;;17.22
71649;BMP180;59492;45.638;11.714;2022-12-18T03:53:58;102358.40;;;17.28
71649;BMP180;59492;45.638;11.714;2022-12-18T03:56:31;102362.20;;;17.30
71649;BMP180;59492;45.638;11.714;2022-12-18T03:58:58;102363.80;;;17.32
71649;BMP180;59492;45.638;11.714;2022-12-18T04:01:30;102369.00;;;17.20
71649;BMP180;59492;45.638;11.714;2022-12-18T04:03:59;102369.40;;;17.28
71649;BMP180;59492;45.638;11.714;2022-12-18T04:06:26;102371.40;;;17.26
71649;BMP180;59492;45.638;11.714;2022-12-18T04:08:53;102373.20;;;17.20
71649;BMP180;59492;45.638;11.714;2022-12-18T04:11:19;102381.00;;;17.20
71649;BMP180;59492;45.638;11.714;2022-12-18T04:13:44;102387.00;;;17.20
71649;BMP180;59492;45.638;11.714;2022-12-18T04:16:10;102390.00;;;17.20
71649;BMP180;59492;45.638;11.714;2022-12-18T04:18:37;102392.20;;;17.28
71649;BMP180;59492;45.638;11.714;2022-12-18T04:21:03;102401.00;;;17.30
71649;BMP180;59492;45.638;11.714;2022-12-18T04:23:28;102409.60;;;17.28
71649;BMP180;59492;45.638;11.714;2022-12-18T04:25:54;102416.40;;;17.24
71649;BMP180;59492;45.638;11.714;2022-12-18T04:28:20;102420.00;;;17.20
71649;BMP180;59492;45.638;11.714;2022-12-18T04:30:46;102421.00;;;17.20
71649;BMP180;59492;45.638;11.714;2022-12-18T04:33:12;102427.80;;;17.20
71649;BMP180;59492;45.638;11.714;2022-12-18T04:35:41;102428.60;;;17.18
71649;BMP180;59492;45.638;11.714;2022-12-18T04:38:07;102429.00;;;17.20
71649;BMP180;59492;45.638;11.714;2022-12-18T04:40:37;102437.80;;;17.20
71649;BMP180;59492;45.638;11.714;2022-12-18T04:43:03;102437.60;;;17.20
71649;BMP180;59492;45.638;11.714;2022-12-18T04:45:32;102434.80;;;17.20
71649;BMP180;59492;45.638;11.714;2022-12-18T04:47:59;102440.80;;;17.20
71649;BMP180;59492;45.638;11.714;2022-12-18T04:50:25;102443.80;;;17.12
71649;BMP180;59492;45.638;11.714;2022-12-18T04:52:51;102454.00;;;17.12
71649;BMP180;59492;45.638;11.714;2022-12-18T04:55:16;102457.60;;;17.10
71649;BMP180;59492;45.638;11.714;2022-12-18T04:57:42;102459.60;;;17.14
71649;BMP180;59492;45.638;11.714;2022-12-18T05:00:08;102467.00;;;17.20
71649;BMP180;59492;45.638;11.714;2022-12-18T05:02:34;102470.00;;;17.20
71649;BMP180;59492;45.638;11.714;2022-12-18T05:04:59;102472.60;;;17.14
71649;BMP180;59492;45.638;11.714;2022-12-18T05:07:25;102477.80;;;17.10
71649;BMP180;59492;45.638;11.714;2022-12-18T05:09:50;102475.60;;;17.10
71649;BMP180;59492;45.638;11.714;2022-12-18T05:12:16;102476.00;;;17.10
71649;BMP180;59492;45.638;11.714;2022-12-18T05:14:41;102480.40;;;17.10
71649;BMP180;59492;45.638;11.714;2022-12-18T05:17:07;102486.40;;;17.10
71649;BMP180;59492;45.638;11.714;2022-12-18T05:19:33;102494.40;;;17.16
71649;BMP180;59492;45.638;11.714;2022-12-18T05:21:58;102489.60;;;17.12
71649;BMP180;59492;45.638;11.714;2022-12-18T05:24:24;102490.80;;;17.10
71649;BMP180;59492;45.638;11.714;2022-12-18T05:26:50;102487.80;;;17.10
71649;BMP180;59492;45.638;11.714;2022-12-18T05:29:15;102493.60;;;17.10
71649;BMP180;59492;45.638;11.714;2022-12-18T05:31:41;102499.40;;;17.10
71649;BMP180;59492;45.638;11.714;2022-12-18T05:34:06;102497.80;;;17.04
71649;BMP180;59492;45.638;11.714;2022-12-18T05:36:32;102498.40;;;17.00
71649;BMP180;59492;45.638;11.714;2022-12-18T05:38:58;102490.20;;;17.10
71649;BMP180;59492;45.638;11.714;2022-12-18T05:41:25;102491.00;;;17.10
71649;BMP180;59492;45.638;11.714;2022-12-18T05:43:51;102493.60;;;17.10
71649;BMP180;59492;45.638;11.714;2022-12-18T05:46:17;102502.00;;;17.10
71649;BMP180;59492;45.638;11.714;2022-12-18T05:48:44;102508.00;;;17.06
71649;BMP180;59492;45.638;11.714;2022-12-18T05:51:15;102510.60;;;17.02
71649;BMP180;59492;45.638;11.714;2022-12-18T05:53:42;102511.60;;;17.00
71649;BMP180;59492;45.638;11.714;2022-12-18T05:56:10;102515.00;;;17.00
71649;BMP180;59492;45.638;11.714;2022-12-18T05:58:36;102518.00;;;17.00
71649;BMP180;59492;45.638;11.714;2022-12-18T06:01:14;102521.80;;;17.02
71649;BMP180;59492;45.638;11.714;2022-12-18T06:03:40;102520.20;;;17.10
71649;BMP180;59492;45.638;11.714;2022-12-18T06:06:18;102517.60;;;17.06
71649;BMP180;59492;45.638;11.714;2022-12-18T06:08:45;102522.40;;;17.00
71649;BMP180;59492;45.638;11.714;2022-12-18T06:11:11;102525.20;;;17.00
71649;BMP180;59492;45.638;11.714;2022-12-18T06:13:37;102528.20;;;17.00
71649;BMP180;59492;45.638;11.714;2022-12-18T06:16:06;102526.60;;;17.00
71649;BMP180;59492;45.638;11.714;2022-12-18T06:18:32;102529.80;;;16.96
71649;BMP180;59492;45.638;11.714;2022-12-18T06:20:59;102538.40;;;16.96
71649;BMP180;59492;45.638;11.714;2022-12-18T06:23:25;102545.20;;;17.00
71649;BMP180;59492;45.638;11.714;2022-12-18T06:25:51;102550.00;;;17.00
71649;BMP180;59492;45.638;11.714;2022-12-18T06:28:17;102554.00;;;17.00
71649;BMP180;59492;45.638;11.714;2022-12-18T06:30:44;102558.60;;;17.00
71649;BMP180;59492;45.638;11.714;2022-12-18T06:33:10;102562.40;;;17.00
71649;BMP180;59492;45.638;11.714;2022-12-18T06:35:35;102569.20;;;16.98
71649;BMP180;59492;45.638;11.714;2022-12-18T06:38:02;102568.60;;;16.92
71649;BMP180;59492;45.638;11.714;2022-12-18T06:40:28;102569.40;;;16.92
71649;BMP180;59492;45.638;11.714;2022-12-18T06:42:53;102572.20;;;16.90
71649;BMP180;59492;45.638;11.714;2022-12-18T06:45:19;102575.60;;;17.00
71649;BMP180;59492;45.638;11.714;2022-12-18T06:47:45;102578.40;;;17.00
71649;BMP180;59492;45.638;11.714;2022-12-18T06:50:11;102581.40;;;17.00
71649;BMP180;59492;45.638;11.714;2022-12-18T06:52:37;102585.20;;;17.00
71649;BMP180;59492;45.638;11.714;2022-12-18T06:55:04;102588.20;;;16.94
71649;BMP180;59492;45.638;11.714;2022-12-18T06:57:30;102592.80;;;16.92
71649;BMP180;59492;45.638;11.714;2022-12-18T06:59:55;102594.00;;;16.90
71649;BMP180;59492;45.638;11.714;2022-12-18T07:02:21;102592.20;;;16.90
71649;BMP180;59492;45.638;11.714;2022-12-18T07:04:46;102591.20;;;16.90
71649;BMP180;59492;45.638;11.714;2022-12-18T07:07:12;102594.20;;;17.00
71649;BMP180;59492;45.638;11.714;2022-12-18T07:09:37;102597.00;;;17.00
71649;BMP180;59492;45.638;11.714;2022-12-18T07:12:03;102596.80;;;17.06
71649;BMP180;59492;45.638;11.714;2022-12-18T07:14:30;102591.60;;;17.04
71649;BMP180;59492;45.638;11.714;2022-12-18T07:16:55;102592.00;;;17.10
71649;BMP180;59492;45.638;11.714;2022-12-18T07:19:21;102594.00;;;17.10
71649;BMP180;59492;45.638;11.714;2022-12-18T07:21:46;102598.00;;;17.10
71649;BMP180;59492;45.638;11.714;2022-12-18T07:24:12;102601.60;;;17.10
71649;BMP180;59492;45.638;11.714;2022-12-18T07:26:38;102604.60;;;17.10
71649;BMP180;59492;45.638;11.714;2022-12-18T07:29:03;102611.40;;;17.10
71649;BMP180;59492;45.638;11.714;2022-12-18T07:31:29;102615.80;;;17.20
71649;BMP180;59492;45.638;11.714;2022-12-18T07:33:54;102618.40;;;17.30
71649;BMP180;59492;45.638;11.714;2022-12-18T07:36:20;102626.20;;;17.40
71649;BMP180;59492;45.638;11.714;2022-12-18T07:38:49;102624.60;;;17.50
71649;BMP180;59492;45.638;11.714;2022-12-18T07:41:15;102630.00;;;17.50
71649;BMP180;59492;45.638;11.714;2022-12-18T07:43:41;102633.60;;;17.50
71649;BMP180;59492;45.638;11.714;2022-12-18T07:46:08;102639.20;;;17.54
71649;BMP180;59492;45.638;11.714;2022-12-18T07:48:34;102640.60;;;17.60
71649;BMP180;59492;45.638;11.714;2022-12-18T07:51:00;102643.40;;;17.70
71649;BMP180;59492;45.638;11.714;2022-12-18T07:53:27;102649.40;;;17.70
71649;BMP180;59492;45.638;11.714;2022-12-18T07:56:00;102652.00;;;17.80
71649;BMP180;59492;45.638;11.714;2022-12-18T07:58:27;102652.80;;;17.92
71649;BMP180;59492;45.638;11.714;2022-12-18T08:00:53;102664.40;;;18.10
71649;BMP180;59492;45.638;11.714;2022-12-18T08:03:19;102667.00;;;18.20
71649;BMP180;59492;45.638;11.714;2022-12-18T08:05:44;102664.80;;;18.40
71649;BMP180;59492;45.638;11.714;2022-12-18T08:08:10;102667.40;;;18.60
71649;BMP180;59492;45.638;11.714;2022-12-18T08:10:37;102674.40;;;18.70
71649;BMP180;59492;45.638;11.714;2022-12-18T08:13:06;102674.60;;;18.88
71649;BMP180;59492;45.638;11.714;2022-12-18T08:15:32;102678.60;;;19.04
71649;BMP180;59492;45.638;11.714;2022-12-18T08:17:57;102678.00;;;19.22
71649;BMP180;59492;45.638;11.714;2022-12-18T08:20:23;102680.20;;;19.40
71649;BMP180;59492;45.638;11.714;2022-12-18T08:22:48;102681.40;;;19.30
71649;BMP180;59492;45.638;11.714;2022-12-18T08:25:14;102684.00;;;19.42
71649;BMP180;59492;45.638;11.714;2022-12-18T08:27:39;102691.00;;;19.70
71649;BMP180;59492;45.638;11.714;2022-12-18T08:30:06;102693.00;;;19.86
71649;BMP180;59492;45.638;11.714;2022-12-18T08:32:32;102693.80;;;20.06
71649;BMP180;59492;45.638;11.714;2022-12-18T08:34:58;102702.40;;;20.20
71649;BMP180;59492;45.638;11.714;2022-12-18T08:37:24;102708.40;;;20.36
71649;BMP180;59492;45.638;11.714;2022-12-18T08:39:50;102713.00;;;20.56
71649;BMP180;59492;45.638;11.714;2022-12-18T08:42:16;102716.60;;;20.70
71649;BMP180;59492;45.638;11.714;2022-12-18T08:45:00;102721.40;;;20.84
71649;BMP180;59492;45.638;11.714;2022-12-18T08:47:26;102723.40;;;20.94
71649;BMP180;59492;45.638;11.714;2022-12-18T08:49:52;102728.20;;;20.98
71649;BMP180;59492;45.638;11.714;2022-12-18T08:52:17;102730.00;;;21.10
71649;BMP180;59492;45.638;11.714;2022-12-18T08:54:43;102726.60;;;21.20
71649;BMP180;59492;45.638;11.714;2022-12-18T08:57:08;102736.40;;;21.30
71649;BMP180;59492;45.638;11.714;2022-12-18T08:59:34;102734.20;;;21.40
71649;BMP180;59492;45.638;11.714;2022-12-18T09:02:00;102742.00;;;21.44
71649;BMP180;59492;45.638;11.714;2022-12-18T09:04:31;102747.40;;;21.40
71649;BMP180;59492;45.638;11.714;2022-12-18T09:06:57;102747.40;;;21.46
71649;BMP180;59492;45.638;11.714;2022-12-18T09:09:27;102751.60;;;21.50
71649;BMP180;59492;45.638;11.714;2022-12-18T09:11:56;102746.20;;;21.50
71649;BMP180;59492;45.638;11.714;2022-12-18T09:14:25;102750.20;;;21.70
71649;BMP180;59492;45.638;11.714;2022-12-18T09:16:51;102755.60;;;21.78
71649;BMP180;59492;45.638;11.714;2022-12-18T09:19:16;102755.60;;;21.80
71649;BMP180;59492;45.638;11.714;2022-12-18T09:21:42;102756.00;;;21.90
71649;BMP180;59492;45.638;11.714;2022-12-18T09:24:12;102757.20;;;22.00
71649;BMP180;59492;45.638;11.714;2022-12-18T09:26:38;102758.80;;;22.14
71649;BMP180;59492;45.638;11.714;2022-12-18T09:29:04;102763.80;;;22.28
71649;BMP180;59492;45.638;11.714;2022-12-18T09:31:32;102763.60;;;22.38
71649;BMP180;59492;45.638;11.714;2022-12-18T09:33:58;102767.20;;;22.44
71649;BMP180;59492;45.638;11.714;2022-12-18T09:36:24;102769.80;;;22.54
71649;BMP180;59492;45.638;11.714;2022-12-18T09:38:49;102772.60;;;22.60
71649;BMP180;59492;45.638;11.714;2022-12-18T09:44:10;102775.40;;;22.80
71649;BMP180;59492;45.638;11.714;2022-12-18T09:46:43;102772.60;;;22.86
71649;BMP180;59492;45.638;11.714;2022-12-18T09:49:12;102769.00;;;22.96
71649;BMP180;59492;45.638;11.714;2022-12-18T09:51:46;102762.60;;;23.20
71649;BMP180;59492;45.638;11.714;2022-12-18T09:54:18;102761.20;;;23.22
71649;BMP180;59492;45.638;11.714;2022-12-18T09:56:45;102760.00;;;23.32
71649;BMP180;59492;45.638;11.714;2022-12-18T10:01:43;102756.20;;;23.50
71649;BMP180;59492;45.638;11.714;2022-12-18T10:04:09;102757.60;;;23.54
71649;BMP180;59492;45.638;11.714;2022-12-18T10:17:45;102749.60;;;23.30
71649;BMP180;59492;45.638;11.714;2022-12-18T10:20:24;102747.40;;;23.30
71649;BMP180;59492;45.638;11.714;2022-12-18T10:25:33;102743.80;;;23.20
71649;BMP180;59492;45.638;11.714;2022-12-18T10:28:14;102743.80;;;23.20
71649;BMP180;59492;45.638;11.714;2022-12-18T10:30:41;102742.40;;;23.12
71649;BMP180;59492;45.638;11.714;2022-12-18T10:33:21;102746.00;;;23.10
71649;BMP180;59492;45.638;11.714;2022-12-18T10:35:51;102745.80;;;23.10
71649;BMP180;59492;45.638;11.714;2022-12-18T10:43:31;102738.00;;;22.96
71649;BMP180;59492;45.638;11.714;2022-12-18T10:54:19;102722.60;;;22.80
71649;BMP180;59492;45.638;11.714;2022-12-18T10:56:46;102726.40;;;22.70
71649;BMP180;59492;45.638;11.714;2022-12-18T10:59:16;102729.20;;;22.60
71649;BMP180;59492;45.638;11.714;2022-12-18T11:01:49;102733.20;;;22.60
71649;BMP180;59492;45.638;11.714;2022-12-18T11:04:20;102733.60;;;22.50
71649;BMP180;59492;45.638;11.714;2022-12-18T11:06:57;102736.00;;;22.50
71649;BMP180;59492;45.638;11.714;2022-12-18T11:09:28;102737.80;;;22.40
71649;BMP180;59492;45.638;11.714;2022-12-18T11:11:56;102736.60;;;22.40
71649;BMP180;59492;45.638;11.714;2022-12-18T11:14:28;102739.40;;;22.36
71649;BMP180;59492;45.638;11.714;2022-12-18T11:16:55;102736.80;;;22.30
71649;BMP180;59492;45.638;11.714;2022-12-18T11:19:39;102738.40;;;22.24
71649;BMP180;59492;45.638;11.714;2022-12-18T11:22:21;102735.60;;;22.20
71649;BMP180;59492;45.638;11.714;2022-12-18T11:24:58;102730.40;;;22.20
71649;BMP180;59492;45.638;11.714;2022-12-18T11:27:25;102728.60;;;22.10
71649;BMP180;59492;45.638;11.714;2022-12-18T11:29:51;102731.60;;;22.10
71649;BMP180;59492;45.638;11.714;2022-12-18T11:35:23;102728.80;;;22.00
71649;BMP180;59492;45.638;11.714;2022-12-18T11:37:57;102727.60;;;21.92
71649;BMP180;59492;45.638;11.714;2022-12-18T11:40:34;102729.00;;;21.90
71649;BMP180;59492;45.638;11.714;2022-12-18T11:43:17;102722.80;;;21.90
71649;BMP180;59492;45.638;11.714;2022-12-18T11:45:51;102716.40;;;21.80
71649;BMP180;59492;45.638;11.714;2022-12-18T11:48:26;102716.40;;;21.80
71649;BMP180;59492;45.638;11.714;2022-12-18T11:50:55;102718.40;;;21.70
71649;BMP180;59492;45.638;11.714;2022-12-18T11:53:21;102718.20;;;21.64
71649;BMP180;59492;45.638;11.714;2022-12-18T11:58:39;102713.60;;;21.54
71649;BMP180;59492;45.638;11.714;2022-12-18T12:11:34;102702.80;;;21.36
71649;BMP180;59492;45.638;11.714;2022-12-18T12:22:34;102703.20;;;21.20
71649;BMP180;59492;45.638;11.714;2022-12-18T12:28:22;102707.80;;;21.10
71649;BMP180;59492;45.638;11.714;2022-12-18T12:39:10;102699.60;;;21.00
71649;BMP180;59492;45.638;11.714;2022-12-18T12:41:38;102696.80;;;21.00
71649;BMP180;59492;45.638;11.714;2022-12-18T12:44:28;102696.20;;;20.90
71649;BMP180;59492;45.638;11.714;2022-12-18T12:47:00;102696.80;;;20.90
71649;BMP180;59492;45.638;11.714;2022-12-18T12:49:31;102694.20;;;20.84
71649;BMP180;59492;45.638;11.714;2022-12-18T12:52:32;102694.60;;;20.80
71649;BMP180;59492;45.638;11.714;2022-12-18T12:55:02;102697.60;;;20.80
71649;BMP180;59492;45.638;11.714;2022-12-18T12:57:42;102702.60;;;20.74
71649;BMP180;59492;45.638;11.714;2022-12-18T13:00:15;102710.80;;;20.70
71649;BMP180;59492;45.638;11.714;2022-12-18T13:05:30;102702.60;;;20.62
71649;BMP180;59492;45.638;11.714;2022-12-18T13:08:04;102696.00;;;20.60
71649;BMP180;59492;45.638;11.714;2022-12-18T13:10:34;102699.00;;;20.52
71649;BMP180;59492;45.638;11.714;2022-12-18T13:13:11;102694.60;;;20.50
71649;BMP180;59492;45.638;11.714;2022-12-18T13:15:48;102691.40;;;20.44
71649;BMP180;59492;45.638;11.714;2022-12-18T13:18:21;102690.20;;;20.40
71649;BMP180;59492;45.638;11.714;2022-12-18T13:23:28;102686.40;;;20.30
71649;BMP180;59492;45.638;11.714;2022-12-18T13:34:17;102686.80;;;20.20
71649;BMP180;59492;45.638;11.714;2022-12-18T13:36:43;102686.40;;;20.10
71649;BMP180;59492;45.638;11.714;2022-12-18T13:41:43;102676.80;;;20.06
71649;BMP180;59492;45.638;11.714;2022-12-18T13:44:31;102676.00;;;20.00
71649;BMP180;59492;45.638;11.714;2022-12-18T13:46:59;102671.40;;;19.96
71649;BMP180;59492;45.638;11.714;2022-12-18T13:52:01;102672.00;;;19.90
71649;BMP180;59492;45.638;11.714;2022-12-18T13:54:39;102673.00;;;19.88
71649;BMP180;59492;45.638;11.714;2022-12-18T13:57:22;102671.80;;;19.80
71649;BMP180;59492;45.638;11.714;2022-12-18T13:59:50;102673.40;;;19.78
71649;BMP180;59492;45.638;11.714;2022-12-18T14:02:21;102673.40;;;19.70
71649;BMP180;59492;45.638;11.714;2022-12-18T14:04:48;102677.20;;;19.70
71649;BMP180;59492;45.638;11.714;2022-12-18T14:07:16;102671.40;;;19.64
71649;BMP180;59492;45.638;11.714;2022-12-18T14:09:48;102671.00;;;19.60
71649;BMP180;59492;45.638;11.714;2022-12-18T14:12:19;102672.20;;;19.58
71649;BMP180;59492;45.638;11.714;2022-12-18T14:15:09;102673.40;;;19.50
71649;BMP180;59492;45.638;11.714;2022-12-18T14:17:40;102670.80;;;19.50
71649;BMP180;59492;45.638;11.714;2022-12-18T14:20:13;102673.00;;;19.42
71649;BMP180;59492;45.638;11.714;2022-12-18T14:22:43;102681.00;;;19.40
71649;BMP180;59492;45.638;11.714;2022-12-18T14:25:17;102683.40;;;19.38
71649;BMP180;59492;45.638;11.714;2022-12-18T14:27:52;102685.20;;;19.40
71649;BMP180;59492;45.638;11.714;2022-12-18T14:30:36;102686.60;;;19.40
71649;BMP180;59492;45.638;11.714;2022-12-18T14:33:08;102682.40;;;19.40
71649;BMP180;59492;45.638;11.714;2022-12-18T14:35:39;102682.00;;;19.32
71649;BMP180;59492;45.638;11.714;2022-12-18T14:40:43;102684.40;;;19.22
71649;BMP180;59492;45.638;11.714;2022-12-18T14:43:12;102686.60;;;19.20
71649;BMP180;59492;45.638;11.714;2022-12-18T14:45:45;102690.80;;;19.20
71649;BMP180;59492;45.638;11.714;2022-12-18T14:50:37;102692.80;;;19.16
71649;BMP180;59492;45.638;11.714;2022-12-18T14:53:03;102692.20;;;19.12
71649;BMP180;59492;45.638;11.714;2022-12-18T14:55:29;102699.00;;;19.10
71649;BMP180;59492;45.638;11.714;2022-12-18T14:57:55;102703.80;;;19.10
71649;BMP180;59492;45.638;11.714;2022-12-18T15:00:23;102705.40;;;19.10
71649;BMP180;59492;45.638;11.714;2022-12-18T15:02:53;102710.00;;;19.10
71649;BMP180;59492;45.638;11.714;2022-12-18T15:05:29;102708.80;;;19.04
71649;BMP180;59492;45.638;11.714;2022-12-18T15:07:58;102714.40;;;19.00
71649;BMP180;59492;45.638;11.714;2022-12-18T15:10:45;102715.00;;;19.00
71649;BMP180;59492;45.638;11.714;2022-12-18T15:13:22;102719.20;;;19.00
71649;BMP180;59492;45.638;11.714;2022-12-18T15:15:50;102718.40;;;19.00
71649;BMP180;59492;45.638;11.714;2022-12-18T15:18:19;102725.40;;;19.00
71649;BMP180;59492;45.638;11.714;2022-12-18T15:20:51;102726.80;;;19.00
71649;BMP180;59492;45.638;11.714;2022-12-18T15:23:32;102727.00;;;19.00
71649;BMP180;59492;45.638;11.714;2022-12-18T15:26:03;102728.40;;;19.00
71649;BMP180;59492;45.638;11.714;2022-12-18T15:28:34;102729.40;;;19.10
71649;BMP180;59492;45.638;11.714;2022-12-18T15:31:05;102731.40;;;19.10
71649;BMP180;59492;45.638;11.714;2022-12-18T15:33:34;102738.80;;;19.10
71649;BMP180;59492;45.638;11.714;2022-12-18T15:36:03;102745.80;;;19.10
71649;BMP180;59492;45.638;11.714;2022-12-18T15:38:29;102746.80;;;19.10
71649;BMP180;59492;45.638;11.714;2022-12-18T15:40:55;102746.40;;;19.10
71649;BMP180;59492;45.638;11.714;2022-12-18T15:43:23;102751.80;;;19.10
71649;BMP180;59492;45.638;11.714;2022-12-18T15:46:05;102748.20;;;19.02
71649;BMP180;59492;45.638;11.714;2022-12-18T15:48:38;102750.60;;;19.08